Time;durP1;ratioP1;P1;durP2;ratioP2;P2;SDS_P1;SDS_P2;PMS_P1;PMS_P2;Temp;Humidity;BMP_temperature;BMP_pressure;BME280_temperature;BME280_humidity;BME280_pressure;Samples;Min_cycle;Max_cycle;Signal;HPM_P1;HPM_P2
2023/09/13 00:02:19;;;;;;;3.30;1.00;;;;;;;;;;5064929;28;20032;-81
2023/09/13 00:04:44;;;;;;;1.45;1.10;;;;;;;;;;5053225;28;20407;-83
2023/09/13 00:07:10;;;;;;;2.90;0.93;;;;;;;;;;5047710;28;20041;-80
2023/09/13 00:09:40;;;;;;;4.80;1.15;;;;;;;;;;5050721;28;20033;-81
2023/09/13 00:12:09;;;;;;;3.03;1.23;;;;;;;;;;5052038;28;20049;-83
2023/09/13 00:14:34;;;;;;;1.40;1.02;;;;;;;;;;5043204;28;20033;-85
2023/09/13 00:17:00;;;;;;;2.45;1.05;;;;;;;;;;5058689;28;20036;-80
2023/09/13 00:19:27;;;;;;;4.55;1.10;;;;;;;;;;5064612;28;20040;-82
2023/09/13 00:21:53;;;;;;;3.13;1.25;;;;;;;;;;5057670;28;20490;-82
2023/09/13 00:24:18;;;;;;;1.42;1.00;;;;;;;;;;5061813;28;20036;-82
2023/09/13 00:26:44;;;;;;;4.97;1.23;;;;;;;;;;5057753;28;20087;-83
2023/09/13 00:29:09;;;;;;;2.88;1.20;;;;;;;;;;5052550;28;20644;-82
2023/09/13 00:31:35;;;;;;;2.83;1.10;;;;;;;;;;5043752;28;20103;-81
2023/09/13 00:34:01;;;;;;;2.10;1.10;;;;;;;;;;5039771;28;20048;-81
2023/09/13 00:36:27;;;;;;;3.17;1.30;;;;;;;;;;5063779;28;20036;-81
2023/09/13 00:38:52;;;;;;;4.38;1.20;;;;;;;;;;5058606;28;20132;-81
2023/09/13 00:41:18;;;;;;;3.25;1.15;;;;;;;;;;5051583;28;20042;-81
2023/09/13 00:43:43;;;;;;;4.65;1.30;;;;;;;;;;5058598;28;20025;-81
2023/09/13 00:46:10;;;;;;;2.45;1.27;;;;;;;;;;5056151;28;20037;-81
2023/09/13 00:48:35;;;;;;;1.60;1.10;;;;;;;;;;5040396;28;20029;-81
2023/09/13 00:51:02;;;;;;;4.55;1.20;;;;;;;;;;5042492;28;20037;-81
2023/09/13 00:53:29;;;;;;;3.65;1.15;;;;;;;;;;5061532;28;20033;-82
2023/09/13 00:55:55;;;;;;;1.83;1.00;;;;;;;;;;5060427;28;20533;-81
2023/09/13 00:58:21;;;;;;;2.15;1.20;;;;;;;;;;5051381;28;20389;-80
2023/09/13 01:00:49;;;;;;;1.80;1.05;;;;;;;;;;5068371;28;20087;-80
2023/09/13 01:03:16;;;;;;;3.47;1.42;;;;;;;;;;5055443;28;20025;-80
2023/09/13 01:05:43;;;;;;;4.65;1.17;;;;;;;;;;5081014;22;20529;-83
2023/09/13 01:08:08;;;;;;;1.90;1.02;;;;;;;;;;5055129;28;20115;-82
2023/09/13 01:10:34;;;;;;;2.65;1.10;;;;;;;;;;5069907;28;20056;-84
2023/09/13 01:13:00;;;;;;;3.28;1.20;;;;;;;;;;5054563;28;20108;-83
2023/09/13 01:15:30;;;;;;;1.88;1.00;;;;;;;;;;5046981;28;20491;-84
2023/09/13 01:18:13;;;;;;;2.17;1.17;;;;;;;;;;5042012;28;20032;-82
2023/09/13 01:21:06;;;;;;;3.58;1.10;;;;;;;;;;5029204;28;20026;-84
2023/09/13 01:24:30;;;;;;;2.13;1.25;;;;;;;;;;5034889;28;20132;-84
2023/09/13 01:27:31;;;;;;;2.72;1.20;;;;;;;;;;4990415;28;20042;-84
2023/09/13 01:30:00;;;;;;;6.65;1.20;;;;;;;;;;4965937;28;20065;-84
2023/09/13 01:32:25;;;;;;;2.13;1.10;;;;;;;;;;5038874;28;20044;-84
2023/09/13 01:34:51;;;;;;;2.30;1.30;;;;;;;;;;5037808;28;20394;-82
2023/09/13 01:37:16;;;;;;;2.70;1.13;;;;;;;;;;5032121;28;20490;-82
2023/09/13 01:39:42;;;;;;;3.47;1.17;;;;;;;;;;5027353;28;20030;-80
2023/09/13 01:42:11;;;;;;;2.20;1.20;;;;;;;;;;5038908;28;20040;-83
2023/09/13 01:44:41;;;;;;;3.65;1.10;;;;;;;;;;5031294;28;20057;-82
2023/09/13 01:47:08;;;;;;;2.50;1.10;;;;;;;;;;5046062;28;20025;-83
2023/09/13 01:49:35;;;;;;;2.95;1.13;;;;;;;;;;5046370;28;20047;-84
2023/09/13 01:52:04;;;;;;;1.85;1.17;;;;;;;;;;5046605;28;20029;-84
2023/09/13 01:54:32;;;;;;;2.72;1.10;;;;;;;;;;5041598;28;20038;-85
2023/09/13 01:56:58;;;;;;;2.80;1.30;;;;;;;;;;5031011;28;20036;-83
2023/09/13 01:59:23;;;;;;;2.50;1.20;;;;;;;;;;5024933;28;20116;-82
2023/09/13 02:01:48;;;;;;;2.67;1.23;;;;;;;;;;5040062;28;20033;-82
2023/09/13 02:04:14;;;;;;;3.33;1.15;;;;;;;;;;5033482;28;20088;-83
2023/09/13 02:06:40;;;;;;;4.30;1.30;;;;;;;;;;5035289;28;20044;-83
2023/09/13 02:09:06;;;;;;;2.28;1.20;;;;;;;;;;5044342;28;20030;-84
2023/09/13 02:11:32;;;;;;;2.45;1.33;;;;;;;;;;5043004;28;20481;-84
2023/09/13 02:13:57;;;;;;;2.58;1.35;;;;;;;;;;5020856;28;20036;-83
2023/09/13 02:16:23;;;;;;;2.95;1.23;;;;;;;;;;5033428;28;21035;-82
2023/09/13 02:18:48;;;;;;;3.78;1.33;;;;;;;;;;5027570;28;20030;-82
2023/09/13 02:21:15;;;;;;;1.42;1.20;;;;;;;;;;5024239;28;20112;-82
2023/09/13 02:23:41;;;;;;;3.08;1.17;;;;;;;;;;5048348;28;20471;-83
2023/09/13 02:26:17;;;;;;;1.88;1.20;;;;;;;;;;5034987;28;20040;-84
2023/09/13 02:28:42;;;;;;;5.28;1.30;;;;;;;;;;5056352;28;20479;-85
2023/09/13 02:31:08;;;;;;;2.97;1.25;;;;;;;;;;5040187;28;20029;-84
2023/09/13 02:33:34;;;;;;;1.92;1.40;;;;;;;;;;5055924;28;20033;-84
2023/09/13 02:36:00;;;;;;;2.78;1.15;;;;;;;;;;5036255;28;20044;-82
2023/09/13 02:38:25;;;;;;;2.47;1.10;;;;;;;;;;5026144;28;20123;-82
2023/09/13 02:40:51;;;;;;;2.10;1.40;;;;;;;;;;5036913;28;20383;-83
2023/09/13 02:43:16;;;;;;;3.50;1.30;;;;;;;;;;5032122;28;20044;-82
2023/09/13 02:45:42;;;;;;;1.73;1.23;;;;;;;;;;5036298;28;20212;-84
2023/09/13 02:48:07;;;;;;;2.25;1.30;;;;;;;;;;5043791;28;20075;-84
2023/09/13 02:50:32;;;;;;;1.67;1.25;;;;;;;;;;5060389;28;20036;-84
2023/09/13 02:52:58;;;;;;;4.70;1.50;;;;;;;;;;5059887;28;20025;-82
2023/09/13 02:55:23;;;;;;;2.47;1.35;;;;;;;;;;5038225;28;20498;-82
2023/09/13 02:57:49;;;;;;;4.10;1.30;;;;;;;;;;5034757;28;20025;-84
2023/09/13 03:00:15;;;;;;;4.32;1.30;;;;;;;;;;5039521;28;20087;-83
2023/09/13 03:02:42;;;;;;;3.53;1.33;;;;;;;;;;5053032;28;20463;-84
2023/09/13 03:05:08;;;;;;;2.80;1.50;;;;;;;;;;5055487;28;20044;-85
2023/09/13 03:07:33;;;;;;;3.30;1.33;;;;;;;;;;5041932;28;20395;-84
2023/09/13 03:09:59;;;;;;;3.53;1.30;;;;;;;;;;5043945;28;20513;-82
2023/09/13 03:12:26;;;;;;;2.15;1.40;;;;;;;;;;5042818;28;20099;-83
2023/09/13 03:14:51;;;;;;;2.28;1.52;;;;;;;;;;5036851;28;20029;-82
2023/09/13 03:17:17;;;;;;;2.90;1.60;;;;;;;;;;5049845;28;20095;-82
2023/09/13 03:19:43;;;;;;;3.67;1.33;;;;;;;;;;5025251;28;20030;-82
2023/09/13 03:22:09;;;;;;;5.03;1.60;;;;;;;;;;5027808;28;20529;-85
2023/09/13 03:24:35;;;;;;;3.05;1.80;;;;;;;;;;5057880;28;20500;-85
2023/09/13 03:27:01;;;;;;;2.47;1.50;;;;;;;;;;5040065;28;20093;-84
2023/09/13 03:29:27;;;;;;;3.13;1.65;;;;;;;;;;5057296;28;20025;-82
2023/09/13 03:31:52;;;;;;;2.90;1.60;;;;;;;;;;5040371;28;20021;-82
2023/09/13 03:34:18;;;;;;;2.58;1.67;;;;;;;;;;5037088;28;20739;-82
2023/09/13 03:36:44;;;;;;;2.33;1.50;;;;;;;;;;5033179;28;20048;-82
2023/09/13 03:39:09;;;;;;;3.97;1.90;;;;;;;;;;5044868;28;20141;-84
2023/09/13 03:41:35;;;;;;;3.13;1.70;;;;;;;;;;5041937;28;20030;-84
2023/09/13 03:44:03;;;;;;;2.63;1.50;;;;;;;;;;5040400;28;20393;-84
2023/09/13 03:46:28;;;;;;;6.50;1.60;;;;;;;;;;5038470;28;20502;-82
2023/09/13 03:48:56;;;;;;;4.15;1.55;;;;;;;;;;5039562;28;20399;-82
2023/09/13 03:51:22;;;;;;;3.40;1.55;;;;;;;;;;5029232;28;20096;-82
2023/09/13 03:53:48;;;;;;;3.22;1.65;;;;;;;;;;5038690;28;20025;-82
2023/09/13 03:56:13;;;;;;;2.42;1.63;;;;;;;;;;5049138;28;20035;-83
2023/09/13 03:58:39;;;;;;;2.63;1.73;;;;;;;;;;5052480;28;20441;-84
2023/09/13 04:01:06;;;;;;;2.88;1.60;;;;;;;;;;5043865;28;20033;-83
2023/09/13 04:03:32;;;;;;;2.13;1.50;;;;;;;;;;5038910;28;20038;-84
2023/09/13 04:05:59;;;;;;;2.55;1.58;;;;;;;;;;5038052;28;20029;-83
2023/09/13 04:08:25;;;;;;;2.78;1.63;;;;;;;;;;5041717;28;20032;-82
2023/09/13 04:10:50;;;;;;;3.05;1.75;;;;;;;;;;5042582;28;20055;-82
2023/09/13 04:13:17;;;;;;;3.17;1.67;;;;;;;;;;5038133;28;20427;-84
2023/09/13 04:15:44;;;;;;;7.45;1.70;;;;;;;;;;5037138;28;20530;-83
2023/09/13 04:18:10;;;;;;;4.15;1.70;;;;;;;;;;5030405;28;20033;-84
2023/09/13 04:20:36;;;;;;;2.83;1.50;;;;;;;;;;5034924;28;20128;-84
2023/09/13 04:23:01;;;;;;;3.20;1.90;;;;;;;;;;5041210;28;20036;-82
2023/09/13 04:25:27;;;;;;;5.57;1.77;;;;;;;;;;5037684;28;20029;-82
2023/09/13 04:27:52;;;;;;;3.25;1.60;;;;;;;;;;5054402;28;20025;-83
2023/09/13 04:30:18;;;;;;;2.75;1.65;;;;;;;;;;5040603;28;20029;-84
2023/09/13 04:32:44;;;;;;;3.47;1.80;;;;;;;;;;5038986;28;20045;-84
2023/09/13 04:35:11;;;;;;;3.47;1.58;;;;;;;;;;5051418;28;20388;-84
2023/09/13 04:37:37;;;;;;;4.18;1.63;;;;;;;;;;5029781;28;20038;-84
2023/09/13 04:40:06;;;;;;;2.58;1.60;;;;;;;;;;5054483;28;20574;-84
2023/09/13 04:42:49;;;;;;;3.00;1.58;;;;;;;;;;5038616;28;20029;-82
2023/09/13 04:45:15;;;;;;;3.90;1.80;;;;;;;;;;5036535;28;20033;-84
2023/09/13 04:47:41;;;;;;;2.55;1.70;;;;;;;;;;5038649;28;20037;-82
2023/09/13 04:50:07;;;;;;;2.40;1.45;;;;;;;;;;5047396;28;20026;-83
2023/09/13 04:52:33;;;;;;;3.90;1.73;;;;;;;;;;5038251;28;20029;-83
2023/09/13 04:54:58;;;;;;;4.15;1.88;;;;;;;;;;5037650;28;20037;-84
2023/09/13 04:57:24;;;;;;;4.25;1.98;;;;;;;;;;5032255;28;20053;-84
2023/09/13 04:59:50;;;;;;;6.78;1.60;;;;;;;;;;5059062;28;20036;-84
2023/09/13 05:02:16;;;;;;;3.75;1.70;;;;;;;;;;5056734;28;20129;-83
2023/09/13 05:04:44;;;;;;;2.80;1.70;;;;;;;;;;5051501;28;20030;-83
2023/09/13 05:07:09;;;;;;;2.75;1.67;;;;;;;;;;5050105;28;20482;-82
2023/09/13 05:09:36;;;;;;;3.88;1.67;;;;;;;;;;5033985;28;20028;-83
2023/09/13 05:12:02;;;;;;;2.83;1.90;;;;;;;;;;5038130;28;20033;-82
2023/09/13 05:14:27;;;;;;;2.40;1.80;;;;;;;;;;5035712;28;20183;-84
2023/09/13 05:16:53;;;;;;;2.60;1.73;;;;;;;;;;5031327;28;20029;-83
2023/09/13 05:19:18;;;;;;;5.07;1.80;;;;;;;;;;5045605;28;20501;-84
2023/09/13 05:21:44;;;;;;;4.05;1.85;;;;;;;;;;5042172;28;20049;-84
2023/09/13 05:24:10;;;;;;;3.13;1.80;;;;;;;;;;5032132;28;20053;-82
2023/09/13 05:26:36;;;;;;;2.70;1.73;;;;;;;;;;5033457;28;20048;-82
2023/09/13 05:29:02;;;;;;;3.70;1.90;;;;;;;;;;5036448;28;20084;-82
2023/09/13 05:31:28;;;;;;;3.78;1.80;;;;;;;;;;5037687;28;20021;-82
2023/09/13 05:33:53;;;;;;;3.97;1.70;;;;;;;;;;5034408;28;20079;-83
2023/09/13 05:36:19;;;;;;;3.70;1.73;;;;;;;;;;5028410;28;20787;-83
2023/09/13 05:38:44;;;;;;;2.40;1.77;;;;;;;;;;5050228;28;20036;-84
2023/09/13 05:41:11;;;;;;;3.70;1.80;;;;;;;;;;5039280;28;20033;-81
2023/09/13 05:43:39;;;;;;;2.72;1.80;;;;;;;;;;5032008;28;20394;-82
2023/09/13 05:46:05;;;;;;;4.75;1.70;;;;;;;;;;5030079;28;20034;-82
2023/09/13 05:48:31;;;;;;;5.15;2.17;;;;;;;;;;5029276;28;20045;-82
2023/09/13 05:50:56;;;;;;;5.50;2.03;;;;;;;;;;5051356;28;20032;-82
2023/09/13 05:53:22;;;;;;;4.35;1.65;;;;;;;;;;5046835;28;20033;-82
2023/09/13 05:55:47;;;;;;;3.95;1.80;;;;;;;;;;5030329;28;20025;-84
2023/09/13 05:58:13;;;;;;;4.22;1.67;;;;;;;;;;5047658;28;20494;-84
2023/09/13 06:00:41;;;;;;;3.05;1.77;;;;;;;;;;5038867;28;20562;-82
2023/09/13 06:03:07;;;;;;;3.33;1.80;;;;;;;;;;5032166;28;20128;-82
2023/09/13 06:05:32;;;;;;;3.60;1.90;;;;;;;;;;5025995;28;20483;-82
2023/09/13 06:07:58;;;;;;;5.75;1.90;;;;;;;;;;5026632;28;20087;-82
2023/09/13 06:10:23;;;;;;;4.30;1.98;;;;;;;;;;5033146;28;20038;-82
2023/09/13 06:12:49;;;;;;;6.32;1.98;;;;;;;;;;5046115;28;20065;-84
2023/09/13 06:15:14;;;;;;;4.30;1.67;;;;;;;;;;5030444;28;20495;-84
2023/09/13 06:17:40;;;;;;;5.38;1.75;;;;;;;;;;5044994;28;20036;-82
2023/09/13 06:20:06;;;;;;;3.42;1.88;;;;;;;;;;5039269;28;20032;-83
2023/09/13 06:22:32;;;;;;;5.85;1.70;;;;;;;;;;5034461;28;20037;-83
2023/09/13 06:25:01;;;;;;;3.15;1.85;;;;;;;;;;5026110;28;20106;-83
2023/09/13 06:27:26;;;;;;;4.07;1.92;;;;;;;;;;5023225;28;20080;-82
2023/09/13 06:29:52;;;;;;;4.40;2.15;;;;;;;;;;5030435;28;20439;-85
2023/09/13 06:32:17;;;;;;;3.88;1.88;;;;;;;;;;5031264;28;20083;-84
2023/09/13 06:34:43;;;;;;;3.90;1.80;;;;;;;;;;5033948;28;20479;-85
2023/09/13 06:37:08;;;;;;;3.00;2.00;;;;;;;;;;5042942;28;20029;-83
2023/09/13 06:39:34;;;;;;;2.83;1.77;;;;;;;;;;5041106;28;20021;-83
2023/09/13 06:42:04;;;;;;;2.25;1.70;;;;;;;;;;5050428;28;20088;-83
2023/09/13 06:44:29;;;;;;;3.67;1.80;;;;;;;;;;5025341;28;20398;-82
2023/09/13 06:46:55;;;;;;;2.50;1.98;;;;;;;;;;5021160;28;20124;-83
2023/09/13 06:49:20;;;;;;;3.53;1.80;;;;;;;;;;5029194;28;20032;-85
2023/09/13 06:51:46;;;;;;;3.40;2.05;;;;;;;;;;5030146;28;20060;-85
2023/09/13 06:54:11;;;;;;;3.88;2.38;;;;;;;;;;5052127;28;20172;-82
2023/09/13 06:56:37;;;;;;;2.83;1.75;;;;;;;;;;5043651;28;20620;-83
2023/09/13 06:59:03;;;;;;;5.40;1.80;;;;;;;;;;5042079;28;20057;-84
2023/09/13 07:01:29;;;;;;;4.28;1.83;;;;;;;;;;5034452;28;20029;-83
2023/09/13 07:03:57;;;;;;;3.60;1.77;;;;;;;;;;5030771;28;20040;-82
2023/09/13 07:06:23;;;;;;;3.38;1.73;;;;;;;;;;5021077;28;20495;-85
2023/09/13 07:08:49;;;;;;;3.75;1.80;;;;;;;;;;5025944;28;20033;-84
2023/09/13 07:11:15;;;;;;;2.25;1.80;;;;;;;;;;5045287;28;20036;-85
2023/09/13 07:13:41;;;;;;;4.18;1.90;;;;;;;;;;5051021;28;20033;-84
2023/09/13 07:16:06;;;;;;;2.60;1.90;;;;;;;;;;5042442;28;20025;-83
2023/09/13 07:18:32;;;;;;;3.53;1.85;;;;;;;;;;5040270;28;20033;-87
2023/09/13 07:20:57;;;;;;;4.32;1.88;;;;;;;;;;5037081;28;20030;-83
2023/09/13 07:23:23;;;;;;;3.97;1.90;;;;;;;;;;5032016;28;20060;-86
2023/09/13 07:25:48;;;;;;;2.88;2.00;;;;;;;;;;5020282;28;20105;-87
2023/09/13 07:28:15;;;;;;;3.03;1.83;;;;;;;;;;5024702;28;20048;-87
2023/09/13 07:30:40;;;;;;;3.75;1.90;;;;;;;;;;5029131;28;20033;-86
2023/09/13 07:33:06;;;;;;;4.95;2.30;;;;;;;;;;5039424;28;20036;-84
2023/09/13 07:35:31;;;;;;;7.53;2.13;;;;;;;;;;5040890;28;20026;-84
2023/09/13 07:37:57;;;;;;;9.82;2.97;;;;;;;;;;5043047;28;20497;-86
2023/09/13 07:40:22;;;;;;;13.95;4.40;;;;;;;;;;5041626;28;20051;-88
2023/09/13 07:42:48;;;;;;;13.52;3.70;;;;;;;;;;5035558;28;20038;-89
2023/09/13 07:45:13;;;;;;;9.82;3.63;;;;;;;;;;5029046;28;20112;-88
2023/09/13 07:47:39;;;;;;;10.93;3.80;;;;;;;;;;5038996;28;20056;-86
2023/09/13 07:50:05;;;;;;;10.35;3.38;;;;;;;;;;5034292;28;20088;-86
2023/09/13 07:52:30;;;;;;;6.95;2.58;;;;;;;;;;5043835;28;20037;-87
2023/09/13 07:54:56;;;;;;;6.88;2.60;;;;;;;;;;5042939;28;20041;-86
2023/09/13 07:57:21;;;;;;;6.35;2.85;;;;;;;;;;5035428;28;20389;-86
2023/09/13 07:59:47;;;;;;;6.50;2.78;;;;;;;;;;5038247;28;20060;-87
2023/09/13 08:02:12;;;;;;;6.63;2.80;;;;;;;;;;5037642;28;20041;-87
2023/09/13 08:04:38;;;;;;;6.35;2.97;;;;;;;;;;5034139;28;20040;-87
2023/09/13 08:07:04;;;;;;;8.52;3.47;;;;;;;;;;5038186;28;20026;-86
2023/09/13 08:09:29;;;;;;;6.20;3.00;;;;;;;;;;5034658;28;20127;-86
2023/09/13 08:11:55;;;;;;;5.65;2.70;;;;;;;;;;5055533;28;20036;-85
2023/09/13 08:14:20;;;;;;;5.90;2.95;;;;;;;;;;5040946;28;20719;-86
2023/09/13 08:16:46;;;;;;;7.50;3.20;;;;;;;;;;5040295;28;20087;-87
2023/09/13 08:19:12;;;;;;;8.45;2.70;;;;;;;;;;5054405;28;20406;-88
2023/09/13 08:21:38;;;;;;;5.22;2.38;;;;;;;;;;5034722;28;20112;-88
2023/09/13 08:24:04;;;;;;;6.15;3.10;;;;;;;;;;5031256;28;20042;-87
2023/09/13 08:26:30;;;;;;;6.68;3.00;;;;;;;;;;5026629;28;20025;-85
2023/09/13 08:28:56;;;;;;;5.35;2.80;;;;;;;;;;5032842;28;20033;-86
2023/09/13 08:31:23;;;;;;;7.20;2.95;;;;;;;;;;5040514;28;20479;-86
2023/09/13 08:33:49;;;;;;;4.93;2.75;;;;;;;;;;5039989;28;20100;-86
2023/09/13 08:36:17;;;;;;;7.35;3.00;;;;;;;;;;5040412;28;20114;-88
2023/09/13 08:38:42;;;;;;;6.28;2.60;;;;;;;;;;5051697;28;20032;-85
2023/09/13 08:41:08;;;;;;;4.78;2.40;;;;;;;;;;5027363;28;20030;-84
2023/09/13 08:43:36;;;;;;;5.45;2.60;;;;;;;;;;5031541;28;20029;-85
2023/09/13 08:46:03;;;;;;;5.25;2.50;;;;;;;;;;5036881;28;20033;-87
2023/09/13 08:48:31;;;;;;;6.95;2.60;;;;;;;;;;5036167;28;20451;-86
2023/09/13 08:50:57;;;;;;;5.13;2.53;;;;;;;;;;5040441;28;20109;-85
2023/09/13 08:53:25;;;;;;;6.38;3.00;;;;;;;;;;5042994;28;20065;-86
2023/09/13 08:55:51;;;;;;;5.35;3.08;;;;;;;;;;5043219;28;20046;-86
2023/09/13 08:58:18;;;;;;;5.45;2.33;;;;;;;;;;5044285;28;20527;-84
2023/09/13 09:00:47;;;;;;;5.57;2.50;;;;;;;;;;5054460;28;20117;-87
2023/09/13 09:03:15;;;;;;;7.57;3.17;;;;;;;;;;5039785;28;20029;-87
2023/09/13 09:05:41;;;;;;;5.30;3.20;;;;;;;;;;5047900;28;20037;-87
2023/09/13 09:08:07;;;;;;;6.85;3.30;;;;;;;;;;5038509;28;20064;-86
2023/09/13 09:10:33;;;;;;;5.47;3.30;;;;;;;;;;5042197;28;20036;-86
2023/09/13 09:13:02;;;;;;;6.07;3.45;;;;;;;;;;5041564;28;20039;-87
2023/09/13 09:15:30;;;;;;;8.90;3.60;;;;;;;;;;5041794;28;20033;-86
2023/09/13 09:17:58;;;;;;;8.95;3.38;;;;;;;;;;5042300;28;20037;-88
2023/09/13 09:20:30;;;;;;;6.63;3.50;;;;;;;;;;5039383;28;20056;-88
2023/09/13 09:22:57;;;;;;;7.32;3.60;;;;;;;;;;5035543;28;20487;-88
2023/09/13 09:25:24;;;;;;;7.50;3.50;;;;;;;;;;5030833;28;20554;-87
2023/09/13 09:27:49;;;;;;;5.80;3.38;;;;;;;;;;5037891;28;20036;-87
2023/09/13 09:30:15;;;;;;;7.32;3.72;;;;;;;;;;5041853;28;20088;-87
2023/09/13 09:32:41;;;;;;;6.18;3.53;;;;;;;;;;5040537;28;20059;-87
2023/09/13 09:35:08;;;;;;;4.90;3.20;;;;;;;;;;5056444;28;20025;-86
2023/09/13 09:37:35;;;;;;;4.28;2.78;;;;;;;;;;5042602;28;20033;-89
2023/09/13 09:40:04;;;;;;;3.97;2.70;;;;;;;;;;5040906;28;20382;-88
2023/09/13 09:42:31;;;;;;;4.57;2.90;;;;;;;;;;5034464;28;20128;-89
2023/09/13 09:44:56;;;;;;;4.38;2.70;;;;;;;;;;5034458;28;20037;-88
2023/09/13 09:47:21;;;;;;;4.47;2.60;;;;;;;;;;5058515;28;20037;-88
2023/09/13 09:49:47;;;;;;;3.50;2.80;;;;;;;;;;5038944;28;20063;-87
2023/09/13 09:52:14;;;;;;;6.18;2.80;;;;;;;;;;5038848;28;20030;-87
2023/09/13 09:54:45;;;;;;;3.65;2.70;;;;;;;;;;5039346;28;20063;-87
2023/09/13 09:57:11;;;;;;;3.90;2.88;;;;;;;;;;5041596;28;20033;-89
2023/09/13 09:59:37;;;;;;;3.45;2.72;;;;;;;;;;5052216;28;20038;-89
2023/09/13 10:02:03;;;;;;;4.97;3.05;;;;;;;;;;5048600;28;20033;-88
2023/09/13 10:04:28;;;;;;;4.47;2.70;;;;;;;;;;5031886;28;20124;-88
2023/09/13 10:07:03;;;;;;;3.85;2.83;;;;;;;;;;5045957;28;20036;-86
2023/09/13 10:09:39;;;;;;;2.90;2.50;;;;;;;;;;5032280;28;20079;-86
2023/09/13 10:12:09;;;;;;;3.80;2.33;;;;;;;;;;5030508;28;20379;-86
2023/09/13 10:14:39;;;;;;;4.00;2.83;;;;;;;;;;5032415;28;20029;-87
2023/09/13 10:17:05;;;;;;;4.07;2.67;;;;;;;;;;5034912;28;20036;-87
2023/09/13 10:19:33;;;;;;;4.97;2.60;;;;;;;;;;5036926;28;20096;-87
2023/09/13 10:21:59;;;;;;;4.22;2.75;;;;;;;;;;5036018;28;20037;-86
2023/09/13 10:24:33;;;;;;;4.38;2.33;;;;;;;;;;5049494;28;20476;-88
2023/09/13 10:26:59;;;;;;;4.32;2.65;;;;;;;;;;5055357;28;20029;-88
2023/09/13 10:29:31;;;;;;;2.65;2.30;;;;;;;;;;5041976;28;20034;-89
2023/09/13 10:32:02;;;;;;;2.83;2.50;;;;;;;;;;5039738;28;20022;-87
2023/09/13 10:34:29;;;;;;;4.85;2.60;;;;;;;;;;5038870;28;20049;-88
2023/09/13 10:37:06;;;;;;;3.72;2.80;;;;;;;;;;5044675;28;20021;-87
2023/09/13 10:39:45;;;;;;;5.22;3.10;;;;;;;;;;5059570;28;20037;-87
2023/09/13 10:42:11;;;;;;;2.97;2.30;;;;;;;;;;5036459;28;20442;-86
2023/09/13 10:44:37;;;;;;;7.38;2.65;;;;;;;;;;5056034;28;20113;-86
2023/09/13 10:47:04;;;;;;;5.30;2.88;;;;;;;;;;5043850;28;20025;-85
2023/09/13 10:49:30;;;;;;;3.20;2.55;;;;;;;;;;5035468;28;20026;-87
2023/09/13 10:51:56;;;;;;;3.72;2.95;;;;;;;;;;5050496;28;20041;-86
2023/09/13 10:54:22;;;;;;;3.38;2.30;;;;;;;;;;5024422;28;20048;-88
2023/09/13 10:56:49;;;;;;;5.25;2.50;;;;;;;;;;5040321;28;20121;-88
2023/09/13 10:59:18;;;;;;;4.25;2.70;;;;;;;;;;5038985;28;20037;-88
2023/09/13 11:01:46;;;;;;;4.03;2.63;;;;;;;;;;5038885;28;20383;-87
2023/09/13 11:04:20;;;;;;;4.25;2.55;;;;;;;;;;5054132;28;20053;-87
2023/09/13 11:06:48;;;;;;;3.55;2.42;;;;;;;;;;5040508;28;20032;-87
2023/09/13 11:09:23;;;;;;;3.22;2.50;;;;;;;;;;5043205;28;20057;-86
2023/09/13 11:11:51;;;;;;;2.85;2.40;;;;;;;;;;5032178;28;20048;-86
2023/09/13 11:14:30;;;;;;;3.35;2.40;;;;;;;;;;5083827;22;20052;-85
2023/09/13 11:16:57;;;;;;;3.40;2.05;;;;;;;;;;5067577;28;20040;-85
2023/09/13 11:19:30;;;;;;;3.25;2.30;;;;;;;;;;5064878;28;20037;-84
2023/09/13 11:22:04;;;;;;;2.60;2.13;;;;;;;;;;5061421;28;20113;-84
2023/09/13 11:24:40;;;;;;;7.53;2.17;;;;;;;;;;5056431;28;20170;-84
2023/09/13 11:27:14;;;;;;;3.95;2.10;;;;;;;;;;5074683;28;20132;-85
2023/09/13 11:29:45;;;;;;;3.53;2.03;;;;;;;;;;5054692;28;20048;-84
2023/09/13 11:32:19;;;;;;;3.65;2.00;;;;;;;;;;5061287;28;20033;-84
2023/09/13 11:34:45;;;;;;;4.72;2.25;;;;;;;;;;5055469;28;20475;-84
2023/09/13 11:37:12;;;;;;;4.80;1.98;;;;;;;;;;5083850;28;20036;-82
2023/09/13 11:39:38;;;;;;;5.88;2.20;;;;;;;;;;5064745;28;20040;-83
2023/09/13 11:42:11;;;;;;;3.95;2.10;;;;;;;;;;5060600;28;20036;-84
2023/09/13 11:44:38;;;;;;;4.25;2.45;;;;;;;;;;5058361;28;20119;-84
2023/09/13 11:47:09;;;;;;;4.90;2.30;;;;;;;;;;5070422;28;20032;-85
2023/09/13 11:49:39;;;;;;;2.90;2.10;;;;;;;;;;5059028;28;20033;-86
2023/09/13 11:52:05;;;;;;;4.53;2.45;;;;;;;;;;5054347;28;20032;-85
2023/09/13 11:54:30;;;;;;;4.63;2.25;;;;;;;;;;5057395;28;20036;-85
2023/09/13 11:56:55;;;;;;;3.47;2.50;;;;;;;;;;5067929;28;20110;-86
2023/09/13 11:59:24;;;;;;;2.90;2.40;;;;;;;;;;5065091;28;20033;-85
2023/09/13 12:01:50;;;;;;;2.90;2.20;;;;;;;;;;5057849;28;20028;-86
2023/09/13 12:04:16;;;;;;;2.97;2.05;;;;;;;;;;5055608;28;20032;-85
2023/09/13 12:06:42;;;;;;;3.17;2.30;;;;;;;;;;5070157;28;20494;-87
2023/09/13 12:09:15;;;;;;;3.25;2.20;;;;;;;;;;5063873;28;20033;-84
2023/09/13 12:11:41;;;;;;;3.72;2.58;;;;;;;;;;5062951;28;20036;-86
2023/09/13 12:14:11;;;;;;;3.72;2.22;;;;;;;;;;5067198;28;20033;-85
2023/09/13 12:16:40;;;;;;;2.65;2.30;;;;;;;;;;5067721;28;20041;-84
2023/09/13 12:19:06;;;;;;;3.80;2.33;;;;;;;;;;5064011;28;20064;-86
2023/09/13 12:21:33;;;;;;;5.07;2.58;;;;;;;;;;5060323;28;20028;-85
2023/09/13 12:23:59;;;;;;;3.67;2.40;;;;;;;;;;5055265;28;20147;-86
2023/09/13 12:26:25;;;;;;;5.70;2.40;;;;;;;;;;5069667;28;20138;-84
2023/09/13 12:28:52;;;;;;;3.42;2.38;;;;;;;;;;5076248;28;20629;-86
2023/09/13 12:31:18;;;;;;;3.58;2.40;;;;;;;;;;5058975;28;20031;-82
2023/09/13 12:33:48;;;;;;;4.20;2.60;;;;;;;;;;5065708;28;20025;-83
2023/09/13 12:36:14;;;;;;;4.47;2.30;;;;;;;;;;5081071;28;20039;-85
2023/09/13 12:38:42;;;;;;;4.97;2.40;;;;;;;;;;5074567;28;20063;-85
2023/09/13 12:41:09;;;;;;;3.88;2.20;;;;;;;;;;5070710;28;20033;-87
2023/09/13 12:43:39;;;;;;;4.00;2.60;;;;;;;;;;5064516;28;20017;-88
2023/09/13 12:46:10;;;;;;;3.10;2.30;;;;;;;;;;5061543;28;20047;-88
2023/09/13 12:48:40;;;;;;;2.60;1.98;;;;;;;;;;5075186;28;20029;-88
2023/09/13 12:51:06;;;;;;;3.75;2.08;;;;;;;;;;5069685;28;20033;-89
2023/09/13 12:53:32;;;;;;;4.93;2.15;;;;;;;;;;5065500;28;20511;-88
2023/09/13 12:55:58;;;;;;;4.70;2.40;;;;;;;;;;5062649;28;20032;-87
2023/09/13 12:58:24;;;;;;;5.90;2.38;;;;;;;;;;5076135;28;20044;-87
2023/09/13 13:00:55;;;;;;;6.13;2.30;;;;;;;;;;5069094;28;20029;-88
2023/09/13 13:03:24;;;;;;;9.07;2.83;;;;;;;;;;5071152;28;20488;-87
2023/09/13 13:05:52;;;;;;;5.40;3.00;;;;;;;;;;5076650;28;20032;-87
2023/09/13 13:08:17;;;;;;;6.05;2.47;;;;;;;;;;5070793;28;20024;-88
2023/09/13 13:10:59;;;;;;;4.13;2.50;;;;;;;;;;5062248;28;20052;-85
2023/09/13 13:13:38;;;;;;;3.45;2.45;;;;;;;;;;5057846;28;20115;-88
2023/09/13 13:16:16;;;;;;;3.83;2.58;;;;;;;;;;5071654;28;20485;-87
2023/09/13 13:18:50;;;;;;;3.50;2.30;;;;;;;;;;5064395;28;20895;-86
2023/09/13 13:21:17;;;;;;;3.75;2.42;;;;;;;;;;5045407;28;20025;-88
2023/09/13 13:23:46;;;;;;;6.60;2.47;;;;;;;;;;5056561;28;20041;-88
2023/09/13 13:26:12;;;;;;;4.00;2.42;;;;;;;;;;5060800;28;20036;-85
2023/09/13 13:28:38;;;;;;;3.53;2.70;;;;;;;;;;5056879;28;20021;-87
2023/09/13 13:31:05;;;;;;;4.38;2.55;;;;;;;;;;5046717;28;20090;-87
2023/09/13 13:33:31;;;;;;;4.65;3.03;;;;;;;;;;5061223;28;20013;-88
2023/09/13 13:35:58;;;;;;;5.05;2.85;;;;;;;;;;5067934;28;20065;-85
2023/09/13 13:38:24;;;;;;;3.40;2.92;;;;;;;;;;5062799;28;20032;-85
2023/09/13 13:41:03;;;;;;;6.40;3.42;;;;;;;;;;5056929;28;20037;-85
2023/09/13 13:43:29;;;;;;;5.68;3.13;;;;;;;;;;5074603;28;20037;-84
2023/09/13 13:45:54;;;;;;;6.75;3.83;;;;;;;;;;5060971;28;20039;-84
2023/09/13 13:48:19;;;;;;;11.55;4.18;;;;;;;;;;5057445;28;20031;-84
2023/09/13 13:50:45;;;;;;;5.63;3.95;;;;;;;;;;5054190;28;20025;-83
2023/09/13 13:53:10;;;;;;;6.97;4.00;;;;;;;;;;5067099;28;20525;-81
2023/09/13 13:55:38;;;;;;;5.55;3.50;;;;;;;;;;5070440;28;20025;-84
2023/09/13 13:58:04;;;;;;;6.63;3.75;;;;;;;;;;5066115;28;20044;-82
2023/09/13 14:00:30;;;;;;;4.97;3.17;;;;;;;;;;5061858;28;20040;-86
2023/09/13 14:02:55;;;;;;;6.55;3.50;;;;;;;;;;5061074;28;20036;-81
2023/09/13 14:05:21;;;;;;;6.07;3.78;;;;;;;;;;5061204;28;20032;-82
2023/09/13 14:07:46;;;;;;;8.60;3.60;;;;;;;;;;5067693;28;20433;-83
2023/09/13 14:10:12;;;;;;;5.32;3.25;;;;;;;;;;5055208;28;20077;-84
2023/09/13 14:12:37;;;;;;;6.68;3.45;;;;;;;;;;5052900;28;20037;-82
2023/09/13 14:15:03;;;;;;;5.40;3.30;;;;;;;;;;5051579;28;20032;-82
2023/09/13 14:17:29;;;;;;;7.88;4.10;;;;;;;;;;5064197;28;20064;-80
2023/09/13 14:19:54;;;;;;;5.78;3.47;;;;;;;;;;5062108;28;20559;-82
2023/09/13 14:22:20;;;;;;;5.78;3.50;;;;;;;;;;5058820;28;20078;-81
2023/09/13 14:24:45;;;;;;;4.95;3.25;;;;;;;;;;5067753;28;20663;-82
2023/09/13 14:27:11;;;;;;;5.57;3.55;;;;;;;;;;5058672;28;20490;-82
2023/09/13 14:29:37;;;;;;;6.10;3.90;;;;;;;;;;5069047;28;20042;-81
2023/09/13 14:32:03;;;;;;;6.07;4.72;;;;;;;;;;5054562;28;20017;-82
2023/09/13 14:34:29;;;;;;;7.72;4.25;;;;;;;;;;5054943;28;20021;-82
2023/09/13 14:36:54;;;;;;;6.15;4.03;;;;;;;;;;5051431;28;20024;-82
2023/09/13 14:39:20;;;;;;;5.28;3.38;;;;;;;;;;5060465;28;20476;-81
2023/09/13 14:41:51;;;;;;;7.55;3.35;;;;;;;;;;5057618;28;20166;-82
2023/09/13 14:44:17;;;;;;;6.07;3.47;;;;;;;;;;5062802;28;20025;-83